Athol, New York
Current Conditions -  °F | °C
As of 12:53 PM on Friday 24 Oct 2014 (Local Time) from KGFL Reporting Station
Overcast Overcast  
Wind Chill: 44°   Ceiling: 1200
Heat Index: 46°   Visibility: 10mi
Dew Point: 43°   Wind: 5mph
Humidity: 89%   Direction: 90°E
Pressure: 29.83"   Gusts: NA
Location:  43.46°N, 73.9°W
Report Text: KGFL 241653Z AUTO 09004KT 10SM SCT006 OVC012 08/06 A2983 RMK AO2 SLP105 T00780061
Loading
Personal Weather Stations






























Interactive Weather Map
Tropical Storm Tracking
New forecast layout! Learn more

10-Day Weather Forecast

Advertisements
Track Severe Weather on mobile